Time,TemperatureF,DewpointF,PressureIn,WindDirection,WindDirectionDegrees,WindSpeedMPH,WindSpeedGustMPH,Humidity,HourlyPrecipIn,Conditions,Clouds,dailyrainin,SoftwareType,DateUTC
2014-04-17 00:01:00,23.5,20.7,30.67,South,177,0.0,0.0,89,0.00,,,0.00,Wunderground v.1.15,2014-04-17 04:01:00,
2014-04-17 00:02:00,23.6,20.8,30.67,South,179,0.0,0.0,89,0.00,,,0.00,Wunderground v.1.15,2014-04-17 04:02:00,
2014-04-17 00:04:00,23.6,20.8,30.67,South,178,0.0,0.0,89,0.00,,,0.00,Wunderground v.1.15,2014-04-17 04:04:00,
2014-04-17 00:08:00,23.4,20.4,30.68,South,177,0.0,0.0,88,0.00,,,0.00,Wunderground v.1.15,2014-04-17 04:08:00,
2014-04-17 00:09:00,23.4,20.4,30.68,South,177,0.0,0.0,88,0.00,,,0.00,Wunderground v.1.15,2014-04-17 04:09:00,
2014-04-17 00:13:00,23.4,20.6,30.68,South,177,0.0,1.0,89,0.00,,,0.00,Wunderground v.1.15,2014-04-17 04:13:00,
2014-04-17 00:14:00,23.4,20.6,30.68,South,177,0.0,1.0,89,0.00,,,0.00,Wunderground v.1.15,2014-04-17 04:14:00,
2014-04-17 00:15:00,23.4,20.6,30.68,South,177,0.0,1.0,89,0.00,,,0.00,Wunderground v.1.15,2014-04-17 04:15:00,
2014-04-17 00:16:00,23.4,20.6,30.68,South,177,0.0,1.0,89,0.00,,,0.00,Wunderground v.1.15,2014-04-17 04:16:00,
2014-04-17 00:18:00,23.4,20.6,30.68,South,179,0.0,1.0,89,0.00,,,0.00,Wunderground v.1.15,2014-04-17 04:18:00,
2014-04-17 00:19:00,23.3,20.5,30.68,South,177,0.0,1.0,89,0.00,,,0.00,Wunderground v.1.15,2014-04-17 04:19:00,
2014-04-17 00:21:00,23.3,20.5,30.68,South,179,0.0,0.0,89,0.00,,,0.00,Wunderground v.1.15,2014-04-17 04:21:00,
2014-04-17 00:23:00,23.2,20.7,30.68,South,177,0.0,0.0,90,0.00,,,0.00,Wunderground v.1.15,2014-04-17 04:23:00,
2014-04-17 00:24:00,23.2,20.4,30.68,South,179,0.0,0.0,89,0.00,,,0.00,Wunderground v.1.15,2014-04-17 04:24:00,
2014-04-17 00:27:00,23.1,20.3,30.68,South,177,0.0,0.0,89,0.00,,,0.00,Wunderground v.1.15,2014-04-17 04:27:00,
2014-04-17 00:28:00,23.1,20.6,30.68,South,179,0.0,0.0,90,0.00,,,0.00,Wunderground v.1.15,2014-04-17 04:28:00,
2014-04-17 00:29:00,23.0,20.5,30.68,South,179,0.0,0.0,90,0.00,,,0.00,Wunderground v.1.15,2014-04-17 04:29:00,
2014-04-17 00:31:00,23.0,20.5,30.68,South,177,0.0,0.0,90,0.00,,,0.00,Wunderground v.1.15,2014-04-17 04:31:00,
2014-04-17 00:34:00,22.9,20.4,30.68,South,177,0.0,0.0,90,0.00,,,0.00,Wunderground v.1.15,2014-04-17 04:34:00,
2014-04-17 00:37:00,22.9,20.4,30.68,South,177,0.0,0.0,90,0.00,,,0.00,Wunderground v.1.15,2014-04-17 04:37:00,
2014-04-17 00:38:00,22.9,20.4,30.68,South,177,0.0,0.0,90,0.00,,,0.00,Wunderground v.1.15,2014-04-17 04:38:00,
2014-04-17 00:39:00,22.8,20.3,30.68,South,177,0.0,0.0,90,0.00,,,0.00,Wunderground v.1.15,2014-04-17 04:39:00,
2014-04-17 00:40:00,22.8,20.3,30.68,South,177,0.0,0.0,90,0.00,,,0.00,Wunderground v.1.15,2014-04-17 04:40:00,
2014-04-17 00:43:00,22.8,20.3,30.68,South,177,0.0,0.0,90,0.00,,,0.00,Wunderground v.1.15,2014-04-17 04:43:00,
2014-04-17 00:44:00,22.8,20.3,30.69,South,177,0.0,0.0,90,0.00,,,0.00,Wunderground v.1.15,2014-04-17 04:44:00,
2014-04-17 00:45:00,22.8,20.3,30.69,South,177,0.0,0.0,90,0.00,,,0.00,Wunderground v.1.15,2014-04-17 04:45:00,
2014-04-17 00:46:00,22.8,20.3,30.69,South,177,0.0,0.0,90,0.00,,,0.00,Wunderground v.1.15,2014-04-17 04:46:00,
2014-04-17 00:47:00,22.8,20.3,30.69,South,177,0.0,0.0,90,0.00,,,0.00,Wunderground v.1.15,2014-04-17 04:47:00,
2014-04-17 00:48:00,22.8,20.3,30.69,South,177,0.0,0.0,90,0.00,,,0.00,Wunderground v.1.15,2014-04-17 04:48:00,
2014-04-17 00:49:00,22.7,20.2,30.69,South,177,0.0,0.0,90,0.00,,,0.00,Wunderground v.1.15,2014-04-17 04:49:00,
2014-04-17 00:52:00,22.6,19.8,30.69,South,177,0.0,0.0,89,0.00,,,0.00,Wunderground v.1.15,2014-04-17 04:52:00,
2014-04-17 00:53:00,22.5,19.7,30.68,South,179,0.0,0.0,89,0.00,,,0.00,Wunderground v.1.15,2014-04-17 04:53:00,
2014-04-17 00:54:00,22.5,19.7,30.68,South,177,0.0,0.0,89,0.00,,,0.00,Wunderground v.1.15,2014-04-17 04:54:00,
2014-04-17 00:55:00,22.5,19.7,30.69,South,179,0.0,0.0,89,0.00,,,0.00,Wunderground v.1.15,2014-04-17 04:55:00,
2014-04-17 00:58:00,22.5,19.7,30.69,South,177,0.0,0.0,89,0.00,,,0.00,Wunderground v.1.15,2014-04-17 04:58:00,
2014-04-17 01:01:00,22.5,20.0,30.69,South,179,0.0,0.0,90,0.00,,,0.00,Wunderground v.1.15,2014-04-17 05:01:00,
2014-04-17 01:02:00,22.5,20.0,30.69,South,179,0.0,0.0,90,0.00,,,0.00,Wunderground v.1.15,2014-04-17 05:02:00,
2014-04-17 01:03:00,22.5,20.0,30.69,South,177,0.0,0.0,90,0.00,,,0.00,Wunderground v.1.15,2014-04-17 05:03:00,
2014-04-17 01:06:00,22.5,20.0,30.70,South,177,0.0,0.0,90,0.00,,,0.00,Wunderground v.1.15,2014-04-17 05:06:00,
2014-04-17 01:09:00,22.4,19.9,30.70,South,177,0.0,0.0,90,0.00,,,0.00,Wunderground v.1.15,2014-04-17 05:09:00,
2014-04-17 01:10:00,22.4,19.9,30.70,South,177,0.0,0.0,90,0.00,,,0.00,Wunderground v.1.15,2014-04-17 05:10:00,
2014-04-17 01:11:00,22.4,19.9,30.70,South,177,0.0,0.0,90,0.00,,,0.00,Wunderground v.1.15,2014-04-17 05:11:00,
2014-04-17 01:13:00,22.2,19.5,30.70,South,177,0.0,0.0,89,0.00,,,0.00,Wunderground v.1.15,2014-04-17 05:13:00,
2014-04-17 01:15:00,22.1,19.4,30.70,South,179,0.0,0.0,89,0.00,,,0.00,Wunderground v.1.15,2014-04-17 05:15:00,
2014-04-17 01:17:00,22.1,19.4,30.70,South,177,0.0,0.0,89,0.00,,,0.00,Wunderground v.1.15,2014-04-17 05:17:00,
2014-04-17 01:19:00,22.0,19.5,30.70,South,179,0.0,1.0,90,0.00,,,0.00,Wunderground v.1.15,2014-04-17 05:19:00,
2014-04-17 01:22:00,21.9,19.2,30.71,South,179,0.0,0.0,89,0.00,,,0.00,Wunderground v.1.15,2014-04-17 05:22:00,
2014-04-17 01:24:00,21.9,19.2,30.71,South,179,0.0,0.0,89,0.00,,,0.00,Wunderground v.1.15,2014-04-17 05:24:00,
2014-04-17 01:25:00,21.9,19.4,30.70,South,177,0.0,0.0,90,0.00,,,0.00,Wunderground v.1.15,2014-04-17 05:25:00,
2014-04-17 01:28:00,22.0,19.5,30.71,South,177,0.0,0.0,90,0.00,,,0.00,Wunderground v.1.15,2014-04-17 05:28:00,
2014-04-17 01:30:00,21.9,19.4,30.71,South,177,0.0,0.0,90,0.00,,,0.00,Wunderground v.1.15,2014-04-17 05:30:00,
2014-04-17 01:31:00,21.9,19.4,30.71,South,177,0.0,0.0,90,0.00,,,0.00,Wunderground v.1.15,2014-04-17 05:31:00,
2014-04-17 01:32:00,21.9,19.4,30.71,South,177,0.0,0.0,90,0.00,,,0.00,Wunderground v.1.15,2014-04-17 05:32:00,
2014-04-17 01:35:00,21.9,19.4,30.72,South,179,0.0,0.0,90,0.00,,,0.00,Wunderground v.1.15,2014-04-17 05:35:00,
2014-04-17 01:36:00,21.9,19.4,30.72,South,177,0.0,0.0,90,0.00,,,0.00,Wunderground v.1.15,2014-04-17 05:36:00,
2014-04-17 01:37:00,22.0,19.5,30.72,South,177,0.0,0.0,90,0.00,,,0.00,Wunderground v.1.15,2014-04-17 05:37:00,
2014-04-17 01:40:00,21.9,19.4,30.71,South,177,0.0,0.0,90,0.00,,,0.00,Wunderground v.1.15,2014-04-17 05:40:00,
2014-04-17 01:44:00,21.9,19.4,30.71,South,177,0.0,0.0,90,0.00,,,0.00,Wunderground v.1.15,2014-04-17 05:44:00,
2014-04-17 01:45:00,21.8,19.3,30.71,South,179,0.0,0.0,90,0.00,,,0.00,Wunderground v.1.15,2014-04-17 05:45:00,
2014-04-17 01:46:00,21.8,19.1,30.71,South,179,0.0,0.0,89,0.00,,,0.00,Wunderground v.1.15,2014-04-17 05:46:00,
2014-04-17 01:48:00,21.7,19.0,30.71,South,177,0.0,0.0,89,0.00,,,0.00,Wunderground v.1.15,2014-04-17 05:48:00,
2014-04-17 01:51:00,21.7,19.0,30.71,South,177,0.0,0.0,89,0.00,,,0.00,Wunderground v.1.15,2014-04-17 05:51:00,
2014-04-17 01:52:00,21.7,19.0,30.71,South,179,0.0,0.0,89,0.00,,,0.00,Wunderground v.1.15,2014-04-17 05:52:00,
2014-04-17 01:53:00,21.6,18.9,30.71,South,177,0.0,0.0,89,0.00,,,0.00,Wunderground v.1.15,2014-04-17 05:53:00,
2014-04-17 01:54:00,21.6,18.9,30.71,South,177,0.0,0.0,89,0.00,,,0.00,Wunderground v.1.15,2014-04-17 05:54:00,
2014-04-17 01:55:00,21.6,18.9,30.71,South,179,0.0,0.0,89,0.00,,,0.00,Wunderground v.1.15,2014-04-17 05:55:00,
2014-04-17 01:59:00,21.6,19.1,30.71,South,177,0.0,0.0,90,0.00,,,0.00,Wunderground v.1.15,2014-04-17 05:59:00,
2014-04-17 02:01:00,21.6,19.1,30.71,South,177,0.0,0.0,90,0.00,,,0.00,Wunderground v.1.15,2014-04-17 06:01:00,
2014-04-17 02:02:00,21.6,19.1,30.71,South,177,0.0,0.0,90,0.00,,,0.00,Wunderground v.1.15,2014-04-17 06:02:00,
2014-04-17 02:04:00,21.6,18.9,30.71,South,177,0.0,1.0,89,0.00,,,0.00,Wunderground v.1.15,2014-04-17 06:04:00,
2014-04-17 02:06:00,21.6,18.9,30.71,South,179,0.0,1.0,89,0.00,,,0.00,Wunderground v.1.15,2014-04-17 06:06:00,
2014-04-17 02:07:00,21.6,18.9,30.71,South,177,0.0,1.0,89,0.00,,,0.00,Wunderground v.1.15,2014-04-17 06:07:00,
2014-04-17 02:08:00,21.6,18.9,30.71,South,178,0.0,1.0,89,0.00,,,0.00,Wunderground v.1.15,2014-04-17 06:08:00,
2014-04-17 02:09:00,21.6,18.9,30.70,South,177,0.0,1.0,89,0.00,,,0.00,Wunderground v.1.15,2014-04-17 06:09:00,
2014-04-17 02:11:00,21.5,18.8,30.71,South,177,0.0,0.0,89,0.00,,,0.00,Wunderground v.1.15,2014-04-17 06:11:00,
2014-04-17 02:12:00,21.5,18.8,30.71,South,177,0.0,0.0,89,0.00,,,0.00,Wunderground v.1.15,2014-04-17 06:12:00,
2014-04-17 02:13:00,21.5,18.8,30.71,South,177,0.0,0.0,89,0.00,,,0.00,Wunderground v.1.15,2014-04-17 06:13:00,
2014-04-17 02:14:00,21.4,18.7,30.71,South,177,0.0,0.0,89,0.00,,,0.00,Wunderground v.1.15,2014-04-17 06:14:00,
2014-04-17 02:17:00,21.4,18.7,30.71,South,177,0.0,0.0,89,0.00,,,0.00,Wunderground v.1.15,2014-04-17 06:17:00,
2014-04-17 02:18:00,21.4,18.7,30.71,South,177,0.0,0.0,89,0.00,,,0.00,Wunderground v.1.15,2014-04-17 06:18:00,
2014-04-17 02:19:00,21.4,18.7,30.71,South,177,0.0,0.0,89,0.00,,,0.00,Wunderground v.1.15,2014-04-17 06:19:00,
2014-04-17 02:22:00,21.3,18.6,30.71,South,177,0.0,0.0,89,0.00,,,0.00,Wunderground v.1.15,2014-04-17 06:22:00,
2014-04-17 02:23:00,21.4,18.7,30.71,South,179,0.0,0.0,89,0.00,,,0.00,Wunderground v.1.15,2014-04-17 06:23:00,
2014-04-17 02:24:00,21.3,18.6,30.71,South,177,0.0,0.0,89,0.00,,,0.00,Wunderground v.1.15,2014-04-17 06:24:00,
2014-04-17 02:27:00,21.3,18.6,30.71,South,177,0.0,0.0,89,0.00,,,0.00,Wunderground v.1.15,2014-04-17 06:27:00,
2014-04-17 02:28:00,21.3,18.6,30.71,South,177,0.0,0.0,89,0.00,,,0.00,Wunderground v.1.15,2014-04-17 06:28:00,
2014-04-17 02:29:00,21.3,18.6,30.71,South,177,0.0,0.0,89,0.00,,,0.00,Wunderground v.1.15,2014-04-17 06:29:00,
2014-04-17 02:32:00,21.2,18.5,30.71,South,179,0.0,1.0,89,0.00,,,0.00,Wunderground v.1.15,2014-04-17 06:32:00,
2014-04-17 02:34:00,21.2,18.2,30.71,South,177,0.0,1.0,88,0.00,,,0.00,Wunderground v.1.15,2014-04-17 06:34:00,
2014-04-17 02:37:00,21.1,18.4,30.71,South,177,0.0,1.0,89,0.00,,,0.00,Wunderground v.1.15,2014-04-17 06:37:00,
2014-04-17 02:38:00,21.1,18.4,30.71,South,177,0.0,1.0,89,0.00,,,0.00,Wunderground v.1.15,2014-04-17 06:38:00,
2014-04-17 02:39:00,21.1,18.4,30.71,South,179,0.0,1.0,89,0.00,,,0.00,Wunderground v.1.15,2014-04-17 06:39:00,
2014-04-17 02:43:00,21.1,18.4,30.71,South,179,0.0,0.0,89,0.00,,,0.00,Wunderground v.1.15,2014-04-17 06:43:00,
2014-04-17 02:44:00,21.1,18.4,30.71,South,177,0.0,0.0,89,0.00,,,0.00,Wunderground v.1.15,2014-04-17 06:44:00,
2014-04-17 02:48:00,20.9,18.2,30.71,South,179,0.0,0.0,89,0.00,,,0.00,Wunderground v.1.15,2014-04-17 06:48:00,
2014-04-17 02:49:00,20.9,17.9,30.72,South,177,1.0,1.0,88,0.00,,,0.00,Wunderground v.1.15,2014-04-17 06:49:00,
2014-04-17 02:50:00,20.9,17.9,30.72,South,179,0.0,1.0,88,0.00,,,0.00,Wunderground v.1.15,2014-04-17 06:50:00,
2014-04-17 02:53:00,20.8,18.1,30.72,South,177,0.0,0.0,89,0.00,,,0.00,Wunderground v.1.15,2014-04-17 06:53:00,
2014-04-17 02:54:00,20.9,18.2,30.72,South,179,0.0,0.0,89,0.00,,,0.00,Wunderground v.1.15,2014-04-17 06:54:00,
2014-04-17 02:55:00,20.9,18.2,30.72,South,177,0.0,0.0,89,0.00,,,0.00,Wunderground v.1.15,2014-04-17 06:55:00,
2014-04-17 02:57:00,20.9,18.2,30.72,South,177,0.0,0.0,89,0.00,,,0.00,Wunderground v.1.15,2014-04-17 06:57:00,
2014-04-17 02:58:00,20.9,18.2,30.73,South,179,0.0,0.0,89,0.00,,,0.00,Wunderground v.1.15,2014-04-17 06:58:00,
2014-04-17 03:01:00,20.9,18.2,30.72,South,179,0.0,0.0,89,0.00,,,0.00,Wunderground v.1.15,2014-04-17 07:01:00,
2014-04-17 03:02:00,20.9,18.2,30.72,South,177,0.0,0.0,89,0.00,,,0.00,Wunderground v.1.15,2014-04-17 07:02:00,
2014-04-17 03:03:00,21.0,18.3,30.72,South,177,1.0,1.0,89,0.00,,,0.00,Wunderground v.1.15,2014-04-17 07:03:00,
2014-04-17 03:07:00,20.8,17.8,30.73,South,179,0.0,1.0,88,0.00,,,0.00,Wunderground v.1.15,2014-04-17 07:07:00,
2014-04-17 03:09:00,20.8,18.1,30.72,South,177,0.0,1.0,89,0.00,,,0.00,Wunderground v.1.15,2014-04-17 07:09:00,
2014-04-17 03:12:00,20.8,18.1,30.73,South,177,0.0,0.0,89,0.00,,,0.00,Wunderground v.1.15,2014-04-17 07:12:00,
2014-04-17 03:13:00,20.8,18.1,30.73,South,177,0.0,0.0,89,0.00,,,0.00,Wunderground v.1.15,2014-04-17 07:13:00,
2014-04-17 03:14:00,20.8,18.1,30.73,South,179,0.0,0.0,89,0.00,,,0.00,Wunderground v.1.15,2014-04-17 07:14:00,
2014-04-17 03:17:00,20.8,18.1,30.73,South,179,0.0,0.0,89,0.00,,,0.00,Wunderground v.1.15,2014-04-17 07:17:00,
2014-04-17 03:18:00,20.8,18.1,30.73,South,179,0.0,0.0,89,0.00,,,0.00,Wunderground v.1.15,2014-04-17 07:18:00,
2014-04-17 03:19:00,20.7,18.0,30.73,South,177,0.0,0.0,89,0.00,,,0.00,Wunderground v.1.15,2014-04-17 07:19:00,
2014-04-17 03:22:00,20.7,18.0,30.74,South,177,0.0,0.0,89,0.00,,,0.00,Wunderground v.1.15,2014-04-17 07:22:00,
2014-04-17 03:23:00,20.7,18.0,30.74,South,179,1.0,1.0,89,0.00,,,0.00,Wunderground v.1.15,2014-04-17 07:23:00,
2014-04-17 03:24:00,20.7,18.0,30.73,South,177,1.0,1.0,89,0.00,,,0.00,Wunderground v.1.15,2014-04-17 07:24:00,
2014-04-17 03:25:00,20.7,18.0,30.73,South,179,0.0,1.0,89,0.00,,,0.00,Wunderground v.1.15,2014-04-17 07:25:00,
2014-04-17 03:27:00,20.6,17.9,30.74,South,177,0.0,1.0,89,0.00,,,0.00,Wunderground v.1.15,2014-04-17 07:27:00,
2014-04-17 03:28:00,20.6,17.9,30.74,South,177,1.0,1.0,89,0.00,,,0.00,Wunderground v.1.15,2014-04-17 07:28:00,
2014-04-17 03:29:00,20.6,17.9,30.74,South,177,0.0,1.0,89,0.00,,,0.00,Wunderground v.1.15,2014-04-17 07:29:00,
2014-04-17 03:30:00,20.6,17.9,30.74,South,178,0.0,0.0,89,0.00,,,0.00,Wunderground v.1.15,2014-04-17 07:30:00,
2014-04-17 03:33:00,20.7,18.0,30.74,South,177,0.0,0.0,89,0.00,,,0.00,Wunderground v.1.15,2014-04-17 07:33:00,
2014-04-17 03:34:00,20.7,18.0,30.73,South,177,0.0,0.0,89,0.00,,,0.00,Wunderground v.1.15,2014-04-17 07:34:00,
2014-04-17 03:35:00,20.6,17.9,30.73,South,179,0.0,0.0,89,0.00,,,0.00,Wunderground v.1.15,2014-04-17 07:35:00,
2014-04-17 03:36:00,20.6,17.9,30.73,South,179,0.0,0.0,89,0.00,,,0.00,Wunderground v.1.15,2014-04-17 07:36:00,
2014-04-17 03:38:00,20.6,17.9,30.74,South,177,0.0,0.0,89,0.00,,,0.00,Wunderground v.1.15,2014-04-17 07:38:00,
2014-04-17 03:39:00,20.6,17.9,30.74,South,177,0.0,0.0,89,0.00,,,0.00,Wunderground v.1.15,2014-04-17 07:39:00,
2014-04-17 03:40:00,20.6,17.9,30.74,South,178,0.0,0.0,89,0.00,,,0.00,Wunderground v.1.15,2014-04-17 07:40:00,
2014-04-17 03:41:00,20.6,17.6,30.74,South,179,1.0,1.0,88,0.00,,,0.00,Wunderground v.1.15,2014-04-17 07:41:00,
2014-04-17 03:43:00,20.5,17.5,30.74,South,177,0.0,1.0,88,0.00,,,0.00,Wunderground v.1.15,2014-04-17 07:43:00,
2014-04-17 03:45:00,20.5,17.8,30.74,South,177,0.0,1.0,89,0.00,,,0.00,Wunderground v.1.15,2014-04-17 07:45:00,
2014-04-17 03:47:00,20.5,17.5,30.74,South,177,0.0,1.0,88,0.00,,,0.00,Wunderground v.1.15,2014-04-17 07:47:00,
2014-04-17 03:48:00,20.4,17.4,30.75,South,177,0.0,1.0,88,0.00,,,0.00,Wunderground v.1.15,2014-04-17 07:48:00,
2014-04-17 03:50:00,20.4,17.4,30.75,South,177,0.0,0.0,88,0.00,,,0.00,Wunderground v.1.15,2014-04-17 07:50:00,
2014-04-17 03:51:00,20.4,17.4,30.75,South,177,0.0,0.0,88,0.00,,,0.00,Wunderground v.1.15,2014-04-17 07:51:00,
2014-04-17 03:52:00,20.4,17.4,30.75,South,177,0.0,0.0,88,0.00,,,0.00,Wunderground v.1.15,2014-04-17 07:52:00,
2014-04-17 03:53:00,20.4,17.4,30.75,South,177,0.0,0.0,88,0.00,,,0.00,Wunderground v.1.15,2014-04-17 07:53:00,
2014-04-17 03:55:00,20.4,17.4,30.75,South,177,0.0,0.0,88,0.00,,,0.00,Wunderground v.1.15,2014-04-17 07:55:00,
2014-04-17 03:56:00,20.4,17.7,30.75,South,179,0.0,0.0,89,0.00,,,0.00,Wunderground v.1.15,2014-04-17 07:56:00,
2014-04-17 03:57:00,20.4,17.7,30.75,South,177,0.0,0.0,89,0.00,,,0.00,Wunderground v.1.15,2014-04-17 07:57:00,
2014-04-17 03:58:00,20.4,17.7,30.75,South,177,0.0,0.0,89,0.00,,,0.00,Wunderground v.1.15,2014-04-17 07:58:00,
2014-04-17 03:59:00,20.4,17.7,30.75,South,177,0.0,0.0,89,0.00,,,0.00,Wunderground v.1.15,2014-04-17 07:59:00,
2014-04-17 04:01:00,20.4,17.7,30.75,South,177,0.0,0.0,89,0.00,,,0.00,Wunderground v.1.15,2014-04-17 08:01:00,
2014-04-17 04:02:00,20.4,17.7,30.75,South,177,0.0,0.0,89,0.00,,,0.00,Wunderground v.1.15,2014-04-17 08:02:00,
2014-04-17 04:03:00,20.4,17.7,30.76,South,177,0.0,0.0,89,0.00,,,0.00,Wunderground v.1.15,2014-04-17 08:03:00,
2014-04-17 04:04:00,20.4,17.7,30.76,South,177,0.0,0.0,89,0.00,,,0.00,Wunderground v.1.15,2014-04-17 08:04:00,
2014-04-17 04:06:00,20.4,17.9,30.76,South,177,0.0,0.0,90,0.00,,,0.00,Wunderground v.1.15,2014-04-17 08:06:00,
2014-04-17 04:07:00,20.4,17.9,30.76,South,179,0.0,0.0,90,0.00,,,0.00,Wunderground v.1.15,2014-04-17 08:07:00,
2014-04-17 04:08:00,20.4,17.9,30.76,South,179,0.0,0.0,90,0.00,,,0.00,Wunderground v.1.15,2014-04-17 08:08:00,
2014-04-17 04:09:00,20.5,18.0,30.75,South,177,0.0,0.0,90,0.00,,,0.00,Wunderground v.1.15,2014-04-17 08:09:00,
2014-04-17 04:11:00,20.4,17.9,30.75,South,178,0.0,0.0,90,0.00,,,0.00,Wunderground v.1.15,2014-04-17 08:11:00,
2014-04-17 04:12:00,20.4,17.9,30.75,South,179,0.0,0.0,90,0.00,,,0.00,Wunderground v.1.15,2014-04-17 08:12:00,
2014-04-17 04:13:00,20.4,18.2,30.75,South,177,0.0,0.0,91,0.00,,,0.00,Wunderground v.1.15,2014-04-17 08:13:00,
2014-04-17 04:14:00,20.5,18.3,30.75,South,179,0.0,0.0,91,0.00,,,0.00,Wunderground v.1.15,2014-04-17 08:14:00,
2014-04-17 04:16:00,20.5,18.3,30.76,South,179,0.0,0.0,91,0.00,,,0.00,Wunderground v.1.15,2014-04-17 08:16:00,
2014-04-17 04:18:00,20.5,18.3,30.76,South,177,0.0,0.0,91,0.00,,,0.00,Wunderground v.1.15,2014-04-17 08:18:00,
2014-04-17 04:19:00,20.5,18.3,30.76,South,179,0.0,0.0,91,0.00,,,0.00,Wunderground v.1.15,2014-04-17 08:19:00,
2014-04-17 04:20:00,20.5,18.3,30.76,South,179,0.0,0.0,91,0.00,,,0.00,Wunderground v.1.15,2014-04-17 08:20:00,
2014-04-17 04:22:00,20.5,18.3,30.76,South,179,0.0,0.0,91,0.00,,,0.00,Wunderground v.1.15,2014-04-17 08:22:00,
2014-04-17 04:23:00,20.4,18.2,30.76,South,177,0.0,1.0,91,0.00,,,0.00,Wunderground v.1.15,2014-04-17 08:23:00,
2014-04-17 04:24:00,20.4,17.9,30.76,South,177,0.0,1.0,90,0.00,,,0.00,Wunderground v.1.15,2014-04-17 08:24:00,
2014-04-17 04:25:00,20.4,17.9,30.76,South,177,0.0,1.0,90,0.00,,,0.00,Wunderground v.1.15,2014-04-17 08:25:00,
2014-04-17 04:27:00,20.3,17.8,30.76,South,177,0.0,1.0,90,0.00,,,0.00,Wunderground v.1.15,2014-04-17 08:27:00,
2014-04-17 04:28:00,20.3,17.8,30.76,South,177,0.0,1.0,90,0.00,,,0.00,Wunderground v.1.15,2014-04-17 08:28:00,
2014-04-17 04:29:00,20.3,17.8,30.76,South,177,0.0,1.0,90,0.00,,,0.00,Wunderground v.1.15,2014-04-17 08:29:00,
2014-04-17 04:30:00,20.3,17.8,30.76,South,179,0.0,0.0,90,0.00,,,0.00,Wunderground v.1.15,2014-04-17 08:30:00,
2014-04-17 04:32:00,20.3,17.8,30.76,South,177,0.0,0.0,90,0.00,,,0.00,Wunderground v.1.15,2014-04-17 08:32:00,
2014-04-17 04:34:00,20.2,17.7,30.76,South,177,0.0,0.0,90,0.00,,,0.00,Wunderground v.1.15,2014-04-17 08:34:00,
2014-04-17 04:35:00,20.2,17.7,30.76,South,179,0.0,0.0,90,0.00,,,0.00,Wunderground v.1.15,2014-04-17 08:35:00,
2014-04-17 04:37:00,20.2,17.7,30.76,South,177,0.0,0.0,90,0.00,,,0.00,Wunderground v.1.15,2014-04-17 08:37:00,
2014-04-17 04:38:00,20.2,17.7,30.76,South,179,0.0,0.0,90,0.00,,,0.00,Wunderground v.1.15,2014-04-17 08:38:00,
2014-04-17 04:39:00,20.2,17.7,30.77,South,177,0.0,0.0,90,0.00,,,0.00,Wunderground v.1.15,2014-04-17 08:39:00,
2014-04-17 04:40:00,20.2,17.7,30.77,South,179,0.0,0.0,90,0.00,,,0.00,Wunderground v.1.15,2014-04-17 08:40:00,
2014-04-17 04:42:00,20.1,17.4,30.77,South,179,0.0,0.0,89,0.00,,,0.00,Wunderground v.1.15,2014-04-17 08:42:00,
2014-04-17 04:43:00,20.1,17.4,30.77,South,179,0.0,0.0,89,0.00,,,0.00,Wunderground v.1.15,2014-04-17 08:43:00,
2014-04-17 04:44:00,20.1,17.4,30.77,South,177,0.0,0.0,89,0.00,,,0.00,Wunderground v.1.15,2014-04-17 08:44:00,
2014-04-17 04:45:00,20.1,17.4,30.77,South,177,0.0,0.0,89,0.00,,,0.00,Wunderground v.1.15,2014-04-17 08:45:00,
2014-04-17 04:48:00,20.1,17.6,30.77,South,179,0.0,0.0,90,0.00,,,0.00,Wunderground v.1.15,2014-04-17 08:48:00,
2014-04-17 04:49:00,20.1,17.6,30.77,South,177,0.0,0.0,90,0.00,,,0.00,Wunderground v.1.15,2014-04-17 08:49:00,
2014-04-17 04:50:00,20.1,17.6,30.78,South,177,0.0,0.0,90,0.00,,,0.00,Wunderground v.1.15,2014-04-17 08:50:00,
2014-04-17 04:53:00,20.0,17.5,30.78,South,177,0.0,0.0,90,0.00,,,0.00,Wunderground v.1.15,2014-04-17 08:53:00,
2014-04-17 04:54:00,20.0,17.5,30.78,South,179,0.0,0.0,90,0.00,,,0.00,Wunderground v.1.15,2014-04-17 08:54:00,
2014-04-17 04:55:00,20.0,17.5,30.78,South,177,0.0,0.0,90,0.00,,,0.00,Wunderground v.1.15,2014-04-17 08:55:00,
2014-04-17 04:59:00,19.9,17.4,30.78,South,177,0.0,0.0,90,0.00,,,0.00,Wunderground v.1.15,2014-04-17 08:59:00,
2014-04-17 05:01:00,19.9,17.4,30.78,South,177,0.0,0.0,90,0.00,,,0.00,Wunderground v.1.15,2014-04-17 09:01:00,
2014-04-17 05:04:00,19.8,17.3,30.78,South,177,0.0,0.0,90,0.00,,,0.00,Wunderground v.1.15,2014-04-17 09:04:00,
2014-04-17 05:05:00,19.8,17.3,30.78,South,177,0.0,0.0,90,0.00,,,0.00,Wunderground v.1.15,2014-04-17 09:05:00,
2014-04-17 05:06:00,19.9,17.4,30.78,South,177,0.0,0.0,90,0.00,,,0.00,Wunderground v.1.15,2014-04-17 09:06:00,
2014-04-17 05:07:00,19.9,17.4,30.78,South,177,0.0,0.0,90,0.00,,,0.00,Wunderground v.1.15,2014-04-17 09:07:00,
2014-04-17 05:09:00,19.9,17.7,30.78,South,179,0.0,0.0,91,0.00,,,0.00,Wunderground v.1.15,2014-04-17 09:09:00,
2014-04-17 05:10:00,19.9,17.7,30.78,South,177,0.0,0.0,91,0.00,,,0.00,Wunderground v.1.15,2014-04-17 09:10:00,
2014-04-17 05:11:00,19.9,17.7,30.78,South,179,0.0,0.0,91,0.00,,,0.00,Wunderground v.1.15,2014-04-17 09:11:00,
2014-04-17 05:12:00,19.9,17.7,30.78,South,177,0.0,0.0,91,0.00,,,0.00,Wunderground v.1.15,2014-04-17 09:12:00,
2014-04-17 05:14:00,19.9,17.7,30.78,South,177,0.0,0.0,91,0.00,,,0.00,Wunderground v.1.15,2014-04-17 09:14:00,
2014-04-17 05:15:00,19.9,17.7,30.78,South,177,0.0,0.0,91,0.00,,,0.00,Wunderground v.1.15,2014-04-17 09:15:00,
2014-04-17 05:16:00,20.0,17.8,30.78,South,177,0.0,0.0,91,0.00,,,0.00,Wunderground v.1.15,2014-04-17 09:16:00,